Terminal Aerodrome Forecast
Issued by NWS Binghamton, NY

Home | Current Version | Previous Version | Text Only | Print | Product List | Glossary On
Versions: 1 2 3 4 5 6 7 8 9 10 11 12 13 14 15 16
867
FTUS41 KBGM 230026 CCA
TAFSYR
TAF COR
KSYR 230026Z 2300/2324 VRB04KT P6SM OVC120
     FM230400 00000KT P6SM OVC060
     FM231600 07006KT P6SM BKN050=

USA.gov is the U.S. government's official web portal to all federal, state and local government web resources and services.